Kezdőlap
METAR-TAF:

METAR-TAF

Repülőterek :

Whiteside County Airport (Jos. H. Bittorf Field)

Sterling-Rock Falls, Illinois, Amerikai Egyesült Államok

földrajzi szélesség: 41-45N, földrajzi hosszúság: 089-40W, magasság: 197 m

Jelenlegi meteorológiai megfigyelések

A jelentés 14 perccel ezelõtt készült, 07:56 UTC
Szélcsend
Hőmérséklet 23°C
Páratartalom 100%
Légköri nyomás 1014 hPa
Látótávolság: 14.5 km
Derült ég

METAR: KSQI 100756Z 00000KT 9SM CLR 23/23 A2994 RMK AO2 SLP002 T02280228

Idő: 03:10 (08:10 UTC)


TAF: hiányzik

Meteorológiai megfigyelések és előrejelzések több, mint 4000 repülőtéren (METAR és TAF jelentéseket).

A térképen piros és sárga pontok jelzik az elérhető meteorológiai állomásokat.

Mozgassa az egeret a pont fölött, hogy megjelenjen az állomás neve.

Azután kattintson az időjárási megfigyelések és előrejelzések megtekintéséhez.

A térkép megváltoztatása: kattintson a fekete keresztel jelölt zöld gombra ráközelítéshez, a vonallal jelölt zöld gombra távolításhoz, vagy a zöld nyilakra a szomszédos térképek eléréséhez.


METAR-TAF: